Aviation Digital Data Service (ADDS)

Output produced by METARs form (0038 UTC 23 October 2014)
found at http://aviationweather.gov/adds/metars/
 
KGSO 222337Z 2300/2324 33005KT P6SM SKC 
     FM231500 31011G17KT P6SM SKC 
     FM232100 31006KT P6SM SKC